Flight Track Log - Related Links

Times and Time Zones

All times are in EDT time to prevent confusion due to time zone crossing. See the UAL4191 flight status page for this flight to view local times or setup timezone preferences in your user account.

Time Position Orientation Groundspeed Altitude Reporting Facility
EDT Latitude Longitude Course Direction KTS MPH feet Rate Location/Type
Thu 08:13:00 PM 40.6500 -74.1833 258° West 176 203 2,100  Level New York TRACON
Thu 08:14:00 PM 40.6167 -74.2500 237° Southwest 219 252 3,600 1,700 Climbing New York TRACON
Thu 08:15:00 PM 40.6000 -74.3333 255° West 254 292 5,500 2,000 Climbing New York TRACON
Thu 08:16:00 PM 40.6000 -74.4167 270° West 262 302 7,600 1,917 Climbing New York TRACON
Thu 08:17:49 PM 40.6244 -74.5989 280° West 263 303 10,900 1,404 Climbing New York Center
Thu 08:18:00 PM 40.6799 -74.9872 258° West  Level FlightAware Approximate
Thu 08:18:51 PM 40.6381 -74.6956 281° West 288 331 11,600  Level New York Center
Thu 08:19:51 PM 40.6564 -74.8306 280° West 325 374 13,000 1,322 Climbing New York Center
Thu 08:20:49 PM 40.6672 -74.9378 278° West 337 388 14,200 1,220 Climbing New York Center
Thu 08:21:49 PM 40.6817 -75.0619 279° West 343 395 15,400 1,339 Climbing New York Center
Thu 08:22:50 PM 40.6869 -75.1992 273° West 343 395 16,900 1,289 Climbing New York Center
Thu 08:23:50 PM 40.6469 -75.3169 246° West 338 389 18,000 942 Climbing New York Center
Thu 08:24:51 PM 40.6175 -75.4353 252° West 338 389 18,800 893 Climbing New York Center
Thu 08:25:51 PM 40.5983 -75.5461 257° West 338 389 19,800 1,119 Climbing New York Center
Thu 08:26:49 PM 40.5722 -75.6725 255° West 350 403 21,000 1,210 Climbing New York Center
Thu 08:27:50 PM 40.5300 -75.7869 244° Southwest 356 410 22,200 1,160 Climbing New York Center
Thu 08:28:48 PM 40.4553 -75.8769 223° Southwest 353 406 23,300 1,160 Climbing New York Center
Thu 08:29:49 PM 40.3783 -75.9694 222° Southwest 370 426 24,500 1,073 Climbing New York Center
Thu 08:30:51 PM 40.3056 -76.0619 224° Southwest 370 426 25,500 934 Climbing New York Center
Thu 08:31:51 PM 40.2325 -76.1544 224° Southwest 370 426 26,400 915 Climbing New York Center
Thu 08:32:49 PM 40.1575 -76.2464 223° Southwest 370 426 27,300 864 Climbing New York Center
Thu 08:33:49 PM 40.0900 -76.3469 229° Southwest 370 426 28,100 738 Climbing New York Center
Thu 08:34:51 PM 40.0386 -76.4647 240° Southwest 370 426 28,800 645 Climbing New York Center
Thu 08:35:50 PM 39.9744 -76.5842 235° Southwest 370 426 29,400 712 Climbing New York Center
Thu 08:36:49 PM 39.9294 -76.6942 242° Southwest 375 432 30,200 755 Climbing New York Center
Thu 08:38:13 PM 39.8550 -76.8536 239° Southwest 379 436 31,200 718 Climbing Washington Center
Thu 08:39:11 PM 39.7994 -76.9769 240° Southwest 384 442 31,900 756 Climbing Washington Center
Thu 08:40:12 PM 39.7417 -77.0972 238° Southwest 390 449 32,700 793 Climbing Washington Center
Thu 08:41:12 PM 39.6839 -77.2200 239° Southwest 390 449 33,500 750 Climbing Washington Center
Thu 08:42:12 PM 39.6258 -77.3428 238° Southwest 401 461 34,200 694 Climbing Washington Center
Thu 08:43:13 PM 39.5700 -77.4625 239° Southwest 401 461 34,900 655 Climbing Washington Center
Thu 08:44:11 PM 39.5117 -77.5847 238° Southwest 401 461 35,500 559 Climbing Washington Center
Thu 08:45:11 PM 39.4533 -77.7067 238° Southwest 401 461 36,000 248 Climbing Washington Center
Thu 08:46:12 PM 39.3950 -77.8314 239° Southwest 401 461 36,000  Level Washington Center
Thu 08:47:13 PM 39.3425 -77.9611 242° Southwest 406 467 36,000  Level Washington Center
Thu 08:48:11 PM 39.2831 -78.1094 243° Southwest 417 480 36,000  Level Washington Center
Thu 08:49:12 PM 39.2414 -78.2125 242° Southwest 417 480 36,000  Level Washington Center
Thu 08:50:13 PM 39.1794 -78.3656 242° Southwest 412 474 36,000  Level Washington Center
Thu 08:51:13 PM 39.1286 -78.4947 243° Southwest 412 474 36,000  Level Washington Center
Thu 08:52:11 PM 39.0775 -78.6183 242° Southwest 406 467 36,000  Level Washington Center
Thu 08:53:12 PM 39.0283 -78.7472 244° Southwest 406 467 36,000  Level Washington Center
Thu 08:54:13 PM 38.9772 -78.8706 242° Southwest 406 467 36,000  Level Washington Center
Thu 08:55:11 PM 38.9339 -79.0022 247° West 406 467 36,000  Level Washington Center
Thu 08:56:12 PM 38.9028 -79.1422 254° West 406 467 36,000  Level Washington Center
Thu 08:57:12 PM 38.8714 -79.2819 254° West 406 467 36,000  Level Washington Center
Thu 08:58:13 PM 38.8397 -79.4242 254° West 411 473 36,000  Level Washington Center
Thu 08:59:13 PM 38.8081 -79.5639 254° West 411 473 36,000  Level Washington Center
Thu 09:00:11 PM 38.7761 -79.7139 255° West 418 481 36,000  Level Washington Center
Thu 09:01:13 PM 38.7444 -79.8425 253° West 423 487 36,000  Level Washington Center
Thu 09:02:03 PM 38.7111 -79.9744 252° West 419 482 36,000  Level Indianapolis Center
Thu 09:03:04 PM 38.6772 -80.1172 253° West 420 483 36,000  Level Indianapolis Center
Thu 09:04:06 PM 38.6442 -80.2606 254° West 419 482 36,000  Level Indianapolis Center
Thu 09:05:07 PM 38.6100 -80.4014 253° West 416 479 36,000  Level Indianapolis Center
Thu 09:06:09 PM 38.5781 -80.5433 254° West 415 478 36,000  Level Indianapolis Center
Thu 09:07:10 PM 38.5439 -80.6858 253° West 417 480 36,000  Level Indianapolis Center
Thu 09:08:12 PM 38.5103 -80.8275 253° West 417 480 36,000  Level Indianapolis Center
Thu 09:09:14 PM 38.4753 -80.9686 252° West 416 479 36,000  Level Indianapolis Center
Thu 09:10:15 PM 38.4417 -81.1108 253° West 415 478 36,000  Level Indianapolis Center
Thu 09:11:17 PM 38.4067 -81.2531 253° West 417 480 36,000  Level Indianapolis Center
Thu 09:12:18 PM 38.3717 -81.3944 253° West 415 478 36,000  Level Indianapolis Center
Thu 09:13:20 PM 38.3297 -81.5644 253° West 415 478 36,000  Level Indianapolis Center
Thu 09:14:21 PM 38.2950 -81.7061 253° West 416 479 36,000  Level Indianapolis Center
Thu 09:15:23 PM 38.2603 -81.8456 252° West 412 474 36,000  Level Indianapolis Center
Thu 09:16:24 PM 38.2242 -81.9858 252° West 415 478 36,000  Level Indianapolis Center
Thu 09:17:26 PM 38.1897 -82.1258 253° West 415 478 36,000  Level Indianapolis Center
Thu 09:18:28 PM 38.1536 -82.2664 252° West 417 480 36,000  Level Indianapolis Center
Thu 09:19:29 PM 38.1178 -82.4067 252° West 417 480 36,000  Level Indianapolis Center
Thu 09:20:31 PM 38.0808 -82.5492 252° West 417 480 36,000  Level Indianapolis Center
Thu 09:21:32 PM 38.0381 -82.7122 252° West 419 482 36,000  Level Indianapolis Center
Thu 09:22:34 PM 38.0028 -82.8536 252° West 420 483 36,000  Level Indianapolis Center
Thu 09:23:35 PM 37.9653 -82.9947 251° West 423 487 36,000  Level Indianapolis Center
Thu 09:24:37 PM 37.9286 -83.1347 252° West 421 484 36,000 -290 Level Indianapolis Center
Thu 09:25:39 PM 37.8775 -83.2647 244° Southwest 416 479 35,400 -634 Descending Indianapolis Center
Thu 09:26:40 PM 37.8153 -83.3836 237° Southwest 405 466 34,700 -634 Descending Indianapolis Center
Thu 09:27:42 PM 37.7525 -83.5025 236° Southwest 406 467 34,100 -341 Descending Indianapolis Center
Thu 09:28:43 PM 37.6775 -83.6419 236° Southwest 411 473 34,000 -49 Descending Indianapolis Center
Thu 09:29:45 PM 37.6131 -83.7631 236° Southwest 413 475 34,000  Level Indianapolis Center
Thu 09:30:47 PM 37.5458 -83.8864 236° Southwest 424 488 34,000 -98 Level Indianapolis Center
Thu 09:31:48 PM 37.4797 -84.0097 236° Southwest 428 493 33,800 -585 Descending Indianapolis Center
Thu 09:32:50 PM 37.4144 -84.1319 236° Southwest 424 488 32,800 -1,210 Descending Indianapolis Center
Thu 09:33:52 PM 37.3492 -84.2519 236° Southwest 418 481 31,300 -1,355 Descending Indianapolis Center
Thu 09:34:54 PM 37.2689 -84.3967 235° Southwest 429 494 30,000 -634 Descending Indianapolis Center
Thu 09:35:55 PM 37.2025 -84.5197 236° Southwest 428 493 30,000  Level Indianapolis Center
Thu 09:36:57 PM 37.1347 -84.6431 235° Southwest 431 496 30,000  Level Indianapolis Center
Thu 09:37:58 PM 37.0678 -84.7664 236° Southwest 431 496 30,000  Level Indianapolis Center
Thu 09:39:00 PM 36.9964 -84.8964 236° Southwest 430 495 30,000 -484 Level Indianapolis Center
Thu 09:40:02 PM 36.9294 -85.0178 235° Southwest 427 491 29,000 -1,659 Descending Indianapolis Center
Thu 09:41:03 PM 36.8678 -85.1494 240° Southwest 437 503 26,600 -2,293 Descending Indianapolis Center
Thu 09:42:05 PM 36.8075 -85.2781 240° Southwest 433 498 24,300 -2,081 Descending Indianapolis Center
Thu 09:43:07 PM 36.7481 -85.4050 240° Southwest 427 491 22,300 -1,220 Descending Indianapolis Center
Thu 09:44:08 PM 36.6778 -85.5539 240° Southwest 419 482 21,800 -1,268 Descending Indianapolis Center
Thu 09:45:10 PM 36.6206 -85.6756 240° Southwest 410 472 19,700 -2,098 Descending Indianapolis Center
Thu 09:46:11 PM 36.5633 -85.7950 239° Southwest 404 465 17,500 -2,488 Descending Indianapolis Center
Thu 09:47:13 PM 36.5089 -85.9122 240° Southwest 396 456 14,600 -2,732 Descending Indianapolis Center
Thu 09:48:14 PM 36.4672 -86.0286 246° West 364 419 11,900 -1,805 Descending Indianapolis Center
Thu 09:49:16 PM 36.4392 -86.1433 253° West 346 398 10,900 -976 Descending Indianapolis Center
Thu 09:50:17 PM 36.4094 -86.2425 250° West 303 349 9,900 -1,366 Descending Indianapolis Center
Thu 09:51:19 PM 36.3694 -86.3244 239° Southwest 277 319 8,100 -1,756 Descending Indianapolis Center
Thu 09:52:20 PM 36.3289 -86.4056 238° Southwest 275 316 6,300 -1,707 Descending Indianapolis Center
Thu 09:53:22 PM 36.2897 -86.4825 238° Southwest 264 304 4,600 -1,552 Descending Indianapolis Center
Thu 09:54:43 PM 36.2369 -86.5925 239° Southwest 262 302 2,600 -1,481 Descending Memphis Center

Login

Don't have an account? Register now (free) for customized features, flight alerts, and more!